Airfield :
LOGIN :

Register | Disclaimer

   EN    FR    IT 

 










Legend :    VFR   Marginal VFR   IFR   Intensive IFR   Very Intensive IFR
Visi :
Ceiling :
>= 8 km
>= 3000ft
5 to 8 km
1000 to 3000 ft
1500m to 5 km
500 to 1000 ft
800 to 1500m
200 to 500 ft
< 800m
< 200 ft
Symbols :   Thunderstorms  Fog  Heavy snow  Heavy precipitations  Wind > 20 kt
SIGMETs :     Misc.  Thunderstorms  Icing  Turbulence  Mountain Waves  Volcanic Ashes







- Airport Elevation : 359 ft
- IATA code : DEB


LHDC - Debrecen

CURRENT METAR :
  • 161745Z 09005KT CAVOK 23/15 Q1009 NOSIG

EXPIRED METARs :
  • 161715Z 12006KT CAVOK 24/16 Q1009 NOSIG
  • 161645Z 09007KT CAVOK 24/16 Q1009 NOSIG
  • 161615Z 09005KT CAVOK 24/16 Q1009 NOSIG
  • 161545Z 09007KT CAVOK 24/16 Q1009 NOSIG
  • 161515Z 06011KT CAVOK 24/15 Q1009 TEMPO VRB15G25KT 8000 -SHRA SCT050CB SCT100

TAF TAF LHDC
Valid from the 16 at 18:00 until the 17 at 03:00 UTC


161715Z 1618/1703 08005KT CAVOK
PROB30
TEMPO 1618/1619 VRB12G22KT 5000 SHRA TSRA SCT050CB SCT100
PROB40 1700/1703 6000 NSC
No reported NOTAMs for that airfield.



MET'MAP, your aeronautical weather chart ! - Copyright ORBIFLY December 2007 - Disclaimer

ORBIFLY MET'MAP TEAM :

Programming & Development : Alexandra Zaïnal
Concept & Development : Baudouin d'Aumeries
Co-Development & Prog : Marc-Olivier Méhu
Technical & hardware support : Manuel Goepfert

Contact : metmap@orbifly.com




SOURCES & CREDITS :

   NOAA